A- A+ FrançaisEnglishEspañol中国

最近的 LFNC Montdauphin-St-Crepin KUBX Cuba MunDAAG Alger Houuari BoumedieneLFRU Morlaix-Ploujean LFRO Lannion-ServelLFBT Tarbes-Lourdes-Pyrénées

飞行员的航空天气,使用METAR(气象机场报告)进行的飞行准备和TAF(终端机场预报:针对以下情况的短期天气预报)航空)。 以及其他资源,例如VAC(目视进近图)和NOTAM(通知飞行员)以进行预试飞行.

METAR, TAF, VAC, NOTAM Leesburg Mun Godfrey机场 (美国) / OACI KJYO

它位于附近 Leesburg (美国) 可提供5天天气预报 Leesburg 在 4.2 km, Belmont 在 4.4 km, Ashburn 在 7.1 km, Broadlands 在 7.4 km, University Center 在 10 km, Brambleton 在 11 km, Dulles Town Center 在 13 km, Countryside 在 13 km,

机场的高度为 Leesburg Mun Godfrey机场的

119 m = 390 ft

附近的机场 Leesburg Mun Godfrey机场的

跑道 Leesburg Mun Godfrey机场的

METAR Leesburg Mun Godfrey机场的 - KJYO

KJYO 141115Z AUTO 00000KT 10SM OVC090 09/06 A3030 RMK AO2

Leesburg Mun Godfrey机场METAR解码 (美国)

KJYO机场发行的METAR日期2020年05月14日至11:15 GMT. 这是一个自动生成的METAR, 警告:此METAR已过期, 已于 22 天 20 小时 43 分钟.

可见度为16.1 km = 10 sm.

温度为9°C = 48 °F 露点为6°C = 43 °F 。 这相当于81%的相对湿度。.

QNH是1026 hPa = 30.3 inHg

的风0 kt = 0 km/h, 风向为0°.

云:多云9000 ft = 2740 m.

备注 AO2

TAF Leesburg Mun Godfrey机场的 - KJYO

没有TAF

Leesburg Mun Godfrey机场的NOTAM

提供的NOTAM不能保证其时事性。 在将其用于飞行准备或在飞行期间使用之前,飞行员是唯一负责验证其有效性的人员。

没有通知

数据源